createdAt,value
2022-09-06T00:01:24.666Z,17.60
2022-09-06T00:03:52.030Z,17.60
2022-09-06T00:06:20.109Z,17.60
2022-09-06T00:08:48.061Z,17.50
2022-09-06T00:11:15.555Z,17.50
2022-09-06T00:13:43.032Z,17.40
2022-09-06T00:16:21.522Z,17.40
2022-09-06T00:18:48.723Z,17.40
2022-09-06T00:21:26.631Z,17.30
2022-09-06T00:23:53.928Z,17.30
2022-09-06T00:26:21.902Z,17.30
2022-09-06T00:28:49.269Z,17.20
2022-09-06T00:31:21.371Z,17.20
2022-09-06T00:33:48.677Z,17.20
2022-09-06T00:36:16.022Z,17.20
2022-09-06T00:38:43.350Z,17.10
2022-09-06T00:41:12.006Z,17.10
2022-09-06T00:43:39.256Z,17.10
2022-09-06T00:46:07.773Z,17.00
2022-09-06T00:48:35.620Z,17.00
2022-09-06T00:51:07.836Z,17.00
2022-09-06T00:53:35.043Z,16.90
2022-09-06T00:56:02.786Z,16.90
2022-09-06T00:58:31.304Z,17.00
2022-09-06T01:00:58.687Z,16.90
2022-09-06T01:03:25.780Z,16.90
2022-09-06T01:06:15.066Z,17.00
2022-09-06T01:08:58.687Z,16.90
2022-09-06T01:11:47.397Z,17.00
2022-09-06T01:14:52.072Z,17.00
2022-09-06T01:17:45.735Z,16.90
2022-09-06T01:20:31.878Z,16.90
2022-09-06T01:23:10.972Z,16.80
2022-09-06T01:26:03.988Z,16.80
2022-09-06T01:28:44.583Z,16.80
2022-09-06T01:31:21.116Z,16.70
2022-09-06T01:34:07.273Z,16.70
2022-09-06T01:37:10.183Z,16.70
2022-09-06T01:39:38.754Z,16.70
2022-09-06T01:42:33.126Z,16.70
2022-09-06T01:45:25.090Z,16.70
2022-09-06T01:48:17.472Z,16.60
2022-09-06T01:50:52.332Z,16.60
2022-09-06T01:53:34.950Z,16.60
2022-09-06T01:56:21.308Z,16.60
2022-09-06T01:58:48.379Z,16.60
2022-09-06T02:01:25.027Z,16.60
2022-09-06T02:04:09.593Z,16.60
2022-09-06T02:06:46.434Z,16.60
2022-09-06T02:09:16.350Z,16.60
2022-09-06T02:11:48.964Z,16.60
2022-09-06T02:14:20.163Z,16.60
2022-09-06T02:16:47.947Z,16.50
2022-09-06T02:19:26.232Z,16.50
2022-09-06T02:21:53.427Z,16.50
2022-09-06T02:24:23.875Z,16.50
2022-09-06T02:26:51.175Z,16.50
2022-09-06T02:29:18.420Z,16.40
2022-09-06T02:31:53.199Z,16.40
2022-09-06T02:34:20.404Z,16.40
2022-09-06T02:36:47.565Z,16.50
2022-09-06T02:39:14.859Z,16.40
2022-09-06T02:41:42.498Z,16.40
2022-09-06T02:44:09.647Z,16.40
2022-09-06T02:46:36.943Z,16.40
2022-09-06T02:49:04.255Z,16.40
2022-09-06T02:51:36.355Z,16.30
2022-09-06T02:54:04.025Z,16.30
2022-09-06T02:56:34.549Z,16.30
2022-09-06T02:59:05.117Z,16.30
2022-09-06T03:01:35.832Z,16.30
2022-09-06T03:04:06.311Z,16.30
2022-09-06T03:06:48.066Z,16.30
2022-09-06T03:09:15.276Z,16.40
2022-09-06T03:11:42.392Z,16.30
2022-09-06T03:14:09.828Z,16.30
2022-09-06T03:16:39.075Z,16.30
2022-09-06T03:19:11.243Z,16.30
2022-09-06T03:21:41.701Z,16.30
2022-09-06T03:24:12.194Z,16.30
2022-09-06T03:26:45.445Z,16.30
2022-09-06T03:29:12.621Z,16.20
2022-09-06T03:31:39.839Z,16.20
2022-09-06T03:34:10.934Z,16.20
2022-09-06T03:36:40.960Z,16.20
2022-09-06T03:39:09.594Z,16.10
2022-09-06T03:41:40.365Z,16.10
2022-09-06T03:44:08.132Z,16.10
2022-09-06T03:46:35.515Z,16.10
2022-09-06T03:49:02.742Z,16.10
2022-09-06T03:51:29.979Z,16.10
2022-09-06T03:54:02.132Z,16.00
2022-09-06T03:56:29.281Z,16.00
2022-09-06T03:58:56.497Z,16.00
2022-09-06T04:01:23.875Z,16.00
2022-09-06T04:03:51.196Z,16.00
2022-09-06T04:06:18.210Z,16.00
2022-09-06T04:08:45.707Z,16.00
2022-09-06T04:11:12.855Z,16.00
2022-09-06T04:13:39.972Z,16.00
2022-09-06T04:16:07.402Z,16.00
2022-09-06T04:18:34.580Z,16.00
2022-09-06T04:21:02.985Z,16.00
2022-09-06T04:23:36.488Z,15.90
2022-09-06T04:26:06.790Z,16.00
2022-09-06T04:28:34.422Z,16.00
2022-09-06T04:31:04.977Z,16.00
2022-09-06T04:33:33.722Z,15.90
2022-09-06T04:36:02.193Z,15.90
2022-09-06T04:38:31.033Z,15.90
2022-09-06T04:40:58.237Z,15.90
2022-09-06T04:43:25.743Z,15.90
2022-09-06T04:45:52.852Z,15.90
2022-09-06T04:48:20.131Z,15.90
2022-09-06T04:50:47.473Z,15.90
2022-09-06T04:53:14.670Z,15.90
2022-09-06T04:55:41.834Z,15.90
2022-09-06T04:58:09.267Z,15.90
2022-09-06T05:00:38.866Z,15.80
2022-09-06T05:03:06.079Z,15.80
2022-09-06T05:05:33.579Z,15.80
2022-09-06T05:08:01.891Z,15.80
2022-09-06T05:10:29.043Z,15.80
2022-09-06T05:12:56.464Z,15.80
2022-09-06T05:15:23.960Z,15.80
2022-09-06T05:17:51.219Z,15.80
2022-09-06T05:20:18.837Z,15.80
2022-09-06T05:22:53.377Z,15.80
2022-09-06T05:25:20.756Z,15.80
2022-09-06T05:27:48.056Z,15.80
2022-09-06T05:30:15.830Z,15.80
2022-09-06T05:32:43.140Z,15.80
2022-09-06T05:35:10.215Z,15.80
2022-09-06T05:37:37.387Z,15.80
2022-09-06T05:40:05.001Z,15.80
2022-09-06T05:42:32.587Z,15.90
2022-09-06T05:44:59.614Z,15.90
2022-09-06T05:47:27.105Z,16.00
2022-09-06T05:49:54.528Z,16.00
2022-09-06T05:52:21.647Z,16.10
2022-09-06T05:54:49.000Z,16.20
2022-09-06T05:57:16.133Z,16.20
2022-09-06T05:59:43.245Z,16.30
2022-09-06T06:02:10.557Z,16.40
2022-09-06T06:04:37.721Z,16.40
2022-09-06T06:07:04.976Z,16.50
2022-09-06T06:09:35.383Z,16.60
2022-09-06T06:12:02.740Z,16.60
2022-09-06T06:14:29.835Z,16.70
2022-09-06T06:16:57.212Z,16.80
2022-09-06T06:19:24.446Z,16.90
2022-09-06T06:21:52.542Z,17.00
2022-09-06T06:24:20.195Z,17.10
2022-09-06T06:26:47.350Z,17.20
2022-09-06T06:29:14.652Z,17.30
2022-09-06T06:31:42.131Z,17.40
2022-09-06T06:34:10.529Z,17.50
2022-09-06T06:36:38.256Z,17.50
2022-09-06T06:39:07.386Z,17.60
2022-09-06T06:41:34.562Z,17.70
2022-09-06T06:44:02.894Z,17.70
2022-09-06T06:46:31.772Z,17.70
2022-09-06T06:48:59.063Z,17.70
2022-09-06T06:51:30.847Z,17.80
2022-09-06T06:53:58.158Z,17.80
2022-09-06T06:56:35.589Z,17.90
2022-09-06T06:59:04.462Z,18.10
2022-09-06T07:01:33.104Z,18.10
2022-09-06T07:04:00.708Z,18.10
2022-09-06T07:12:43.076Z,18.30
2022-09-06T07:15:14.447Z,18.50
2022-09-06T07:17:41.697Z,18.50
2022-09-06T07:20:12.647Z,18.60
2022-09-06T07:22:40.738Z,18.70
2022-09-06T07:25:08.812Z,18.90
2022-09-06T07:27:51.260Z,19.00
2022-09-06T07:30:20.386Z,18.90
2022-09-06T07:33:22.691Z,18.90
2022-09-06T07:36:10.139Z,18.90
2022-09-06T07:41:37.556Z,18.90
2022-09-06T07:44:34.622Z,19.00
2022-09-06T08:09:26.403Z,19.20
2022-09-06T08:15:49.211Z,19.20
2022-09-06T08:18:19.884Z,19.20
2022-09-06T08:20:54.512Z,19.40
2022-09-06T08:23:36.001Z,19.40
2022-09-06T08:26:09.922Z,19.40
2022-09-06T08:28:39.917Z,19.50
2022-09-06T08:31:11.939Z,19.60
2022-09-06T08:33:39.441Z,19.60
2022-09-06T08:36:07.387Z,19.60
2022-09-06T08:38:35.543Z,19.70
2022-09-06T08:41:08.328Z,19.70
2022-09-06T08:43:36.399Z,19.80
2022-09-06T08:51:54.508Z,19.80
2022-09-06T09:01:04.127Z,20.20
2022-09-06T09:11:33.538Z,20.00
2022-09-06T09:14:29.543Z,19.90
2022-09-06T09:17:05.610Z,19.90
2022-09-06T09:19:36.902Z,19.90
2022-09-06T09:22:04.311Z,19.90
2022-09-06T09:24:34.382Z,20.00
2022-09-06T09:27:05.665Z,20.10
2022-09-06T09:29:36.307Z,20.10
2022-09-06T09:32:04.176Z,20.30
2022-09-06T09:34:35.446Z,20.40
2022-09-06T09:40:18.009Z,20.50
2022-09-06T09:42:45.330Z,20.50
2022-09-06T09:45:28.561Z,20.60
2022-09-06T09:48:03.804Z,20.70
2022-09-06T09:50:33.120Z,20.70
2022-09-06T09:53:53.603Z,20.70
2022-09-06T09:56:36.118Z,20.80
2022-09-06T09:59:06.261Z,20.90
2022-09-06T10:01:33.961Z,20.90
2022-09-06T10:07:16.310Z,21.00
2022-09-06T10:09:52.737Z,20.90
2022-09-06T10:12:46.638Z,20.90
2022-09-06T10:15:33.612Z,20.80
2022-09-06T10:18:03.030Z,20.80
2022-09-06T10:21:02.349Z,20.60
2022-09-06T10:26:56.589Z,20.70
2022-09-06T10:29:44.151Z,20.80
2022-09-06T10:32:30.368Z,20.90
2022-09-06T10:35:21.182Z,21.10
2022-09-06T10:38:14.541Z,21.10
2022-09-06T10:41:22.928Z,21.20
2022-09-06T10:44:04.652Z,21.30
2022-09-06T10:46:34.025Z,21.40
2022-09-06T10:49:04.535Z,21.50
2022-09-06T10:51:46.339Z,21.60
2022-09-06T10:54:17.149Z,21.70
2022-09-06T10:57:05.107Z,21.70
2022-09-06T10:59:39.706Z,21.70
2022-09-06T11:02:36.376Z,21.70
2022-09-06T11:10:49.971Z,21.70
2022-09-06T11:13:18.770Z,21.70
2022-09-06T11:16:01.466Z,21.80
2022-09-06T11:18:46.803Z,21.90
2022-09-06T11:21:35.665Z,21.90
2022-09-06T11:24:11.322Z,21.90
2022-09-06T11:26:46.156Z,22.00
2022-09-06T11:29:24.247Z,22.20
2022-09-06T11:32:18.188Z,22.40
2022-09-06T11:35:01.568Z,22.50
2022-09-06T11:37:52.069Z,22.60
2022-09-06T11:43:17.279Z,22.60
2022-09-06T11:45:48.997Z,22.60
2022-09-06T11:48:34.625Z,22.70
2022-09-06T11:51:06.969Z,22.70
2022-09-06T11:53:49.431Z,22.60
2022-09-06T11:56:25.978Z,22.50
2022-09-06T11:58:56.741Z,22.40
2022-09-06T12:01:23.917Z,22.60
2022-09-06T12:07:11.954Z,22.90
2022-09-06T12:09:43.132Z,23.00
2022-09-06T12:12:13.594Z,23.00
2022-09-06T12:14:46.892Z,23.40
2022-09-06T12:21:46.698Z,23.60
2022-09-06T12:25:02.868Z,23.50
2022-09-06T12:27:40.928Z,23.50
2022-09-06T12:30:14.355Z,23.50
2022-09-06T12:32:48.793Z,23.50
2022-09-06T12:38:08.746Z,23.90
2022-09-06T12:40:38.800Z,24.10
2022-09-06T12:43:06.154Z,24.20
2022-09-06T12:45:33.685Z,24.20
2022-09-06T12:48:08.841Z,24.30
2022-09-06T12:50:36.904Z,24.20
2022-09-06T12:53:04.984Z,24.00
2022-09-06T12:55:38.863Z,23.80
2022-09-06T12:58:10.442Z,23.80
2022-09-06T13:00:40.830Z,24.00
2022-09-06T13:03:28.149Z,24.40
2022-09-06T13:05:58.285Z,24.40
2022-09-06T13:08:39.965Z,24.40
2022-09-06T13:11:12.748Z,24.20
2022-09-06T13:13:49.321Z,24.30
2022-09-06T13:16:50.391Z,24.20
2022-09-06T13:19:39.390Z,24.30
2022-09-06T13:22:12.524Z,24.40
2022-09-06T13:25:25.575Z,24.40
2022-09-06T13:28:05.079Z,24.50
2022-09-06T13:30:49.029Z,24.70
2022-09-06T13:33:24.887Z,24.90
2022-09-06T13:36:04.952Z,24.80
2022-09-06T13:38:38.248Z,24.70
2022-09-06T13:41:13.551Z,24.60
2022-09-06T13:43:46.341Z,24.40
2022-09-06T13:46:13.652Z,24.10
2022-09-06T13:48:41.945Z,24.00
2022-09-06T13:51:09.888Z,23.90
2022-09-06T13:53:37.494Z,23.70
2022-09-06T13:56:12.749Z,23.50
2022-09-06T13:58:40.307Z,23.30
2022-09-06T14:01:10.621Z,23.00
2022-09-06T14:03:40.085Z,23.10
2022-09-06T14:06:09.448Z,23.10
2022-09-06T14:08:56.320Z,23.10
2022-09-06T14:11:25.756Z,22.90
2022-09-06T14:13:53.172Z,22.80
2022-09-06T14:16:20.646Z,22.90
2022-09-06T14:18:52.261Z,23.10
2022-09-06T14:21:22.643Z,23.30
2022-09-06T14:23:58.887Z,23.20
2022-09-06T14:26:30.824Z,23.00
2022-09-06T14:28:58.246Z,22.90
2022-09-06T14:31:26.860Z,23.00
2022-09-06T14:33:59.488Z,23.20
2022-09-06T14:36:29.474Z,23.30
2022-09-06T14:38:57.935Z,23.30
2022-09-06T14:41:25.274Z,23.20
2022-09-06T14:43:54.650Z,23.10
2022-09-06T14:46:22.582Z,23.10
2022-09-06T14:48:51.396Z,23.20
2022-09-06T14:51:25.145Z,23.20
2022-09-06T14:53:54.981Z,23.10
2022-09-06T14:56:23.825Z,23.10
2022-09-06T14:58:57.681Z,23.20
2022-09-06T15:01:38.400Z,23.30
2022-09-06T15:04:09.133Z,23.30
2022-09-06T15:06:39.271Z,23.40
2022-09-06T15:09:07.263Z,23.70
2022-09-06T15:11:35.515Z,23.80
2022-09-06T15:14:10.052Z,23.90
2022-09-06T15:16:37.480Z,23.70
2022-09-06T15:19:06.513Z,23.80
2022-09-06T15:21:40.022Z,23.70
2022-09-06T15:24:11.713Z,23.60
2022-09-06T15:26:42.836Z,23.70
2022-09-06T15:29:12.034Z,23.70
2022-09-06T15:31:39.404Z,23.60
2022-09-06T15:34:08.363Z,23.40
2022-09-06T15:36:36.286Z,23.40
2022-09-06T15:39:06.042Z,23.30
2022-09-06T15:41:35.806Z,23.20
2022-09-06T15:44:08.684Z,23.20
2022-09-06T15:46:36.780Z,23.20
2022-09-06T15:49:08.110Z,23.20
2022-09-06T15:51:37.760Z,23.20
2022-09-06T15:54:05.526Z,23.00
2022-09-06T15:56:32.957Z,22.80
2022-09-06T15:59:02.159Z,22.70
2022-09-06T16:01:32.147Z,22.70
2022-09-06T16:04:11.376Z,22.60
2022-09-06T16:06:57.105Z,22.60
2022-09-06T16:09:24.872Z,22.40
2022-09-06T16:11:51.930Z,22.30
2022-09-06T16:14:19.604Z,22.20
2022-09-06T16:16:48.136Z,22.10
2022-09-06T16:19:15.205Z,22.00
2022-09-06T16:21:42.864Z,21.90
2022-09-06T16:24:14.524Z,21.80
2022-09-06T16:26:51.582Z,21.70
2022-09-06T16:29:19.327Z,21.60
2022-09-06T16:31:46.794Z,21.30
2022-09-06T16:34:14.249Z,21.00
2022-09-06T16:36:41.976Z,20.80
2022-09-06T16:39:09.411Z,20.50
2022-09-06T16:41:40.100Z,20.20
2022-09-06T16:44:17.050Z,19.80
2022-09-06T16:46:45.614Z,19.60
2022-09-06T16:49:15.948Z,19.60
2022-09-06T16:51:43.861Z,19.60
2022-09-06T16:54:11.145Z,19.70
2022-09-06T16:56:39.616Z,19.70
2022-09-06T16:59:15.459Z,19.70
2022-09-06T17:01:56.046Z,19.70
2022-09-06T17:04:55.385Z,19.60
2022-09-06T17:07:22.670Z,19.60
2022-09-06T17:09:55.435Z,19.60
2022-09-06T17:12:22.977Z,19.60
2022-09-06T17:14:50.036Z,19.60
2022-09-06T17:17:18.065Z,19.50
2022-09-06T17:19:51.877Z,19.40
2022-09-06T17:22:19.081Z,19.40
2022-09-06T17:24:46.313Z,19.30
2022-09-06T17:27:14.223Z,19.20
2022-09-06T17:29:41.306Z,19.10
2022-09-06T17:32:10.625Z,19.10
2022-09-06T17:34:41.158Z,19.10
2022-09-06T17:37:08.296Z,19.10
2022-09-06T17:39:35.628Z,19.00
2022-09-06T17:42:03.054Z,19.00
2022-09-06T17:44:30.308Z,19.00
2022-09-06T17:47:14.108Z,19.00
2022-09-06T17:49:42.963Z,18.90
2022-09-06T17:52:10.393Z,18.90
2022-09-06T17:54:37.673Z,18.90
2022-09-06T17:57:05.128Z,18.80
2022-09-06T17:59:35.421Z,18.80
2022-09-06T18:02:03.932Z,18.80
2022-09-06T18:04:34.189Z,18.80
2022-09-06T18:07:07.337Z,18.80
2022-09-06T18:09:35.103Z,18.70
2022-09-06T18:12:03.106Z,18.80
2022-09-06T18:14:30.337Z,18.70
2022-09-06T18:16:57.746Z,18.70
2022-09-06T18:19:25.301Z,18.70
2022-09-06T18:21:52.435Z,18.70
2022-09-06T18:24:22.898Z,18.70
2022-09-06T18:26:49.988Z,18.70
2022-09-06T18:29:18.571Z,18.70
2022-09-06T18:31:46.011Z,18.70
2022-09-06T18:34:13.256Z,18.70
2022-09-06T18:36:40.473Z,18.60
2022-09-06T18:39:07.967Z,18.70
2022-09-06T18:41:53.992Z,18.70
2022-09-06T18:44:21.820Z,18.60
2022-09-06T18:46:50.094Z,18.50
2022-09-06T18:49:17.580Z,18.50
2022-09-06T18:51:45.851Z,18.50
2022-09-06T18:54:13.732Z,18.50
2022-09-06T18:56:41.473Z,18.40
2022-09-06T18:59:11.166Z,18.40
2022-09-06T19:01:38.692Z,18.40
2022-09-06T19:04:06.281Z,18.40
2022-09-06T19:06:34.372Z,18.30
2022-09-06T19:09:05.196Z,18.30
2022-09-06T19:11:32.758Z,18.20
2022-09-06T19:14:00.695Z,18.20
2022-09-06T19:16:28.585Z,18.10
2022-09-06T19:18:59.784Z,18.10
2022-09-06T19:21:27.781Z,18.10
2022-09-06T19:24:01.596Z,18.00
2022-09-06T19:26:31.814Z,18.00
2022-09-06T19:28:59.960Z,17.90
2022-09-06T19:31:30.346Z,17.90
2022-09-06T19:33:57.727Z,17.70
2022-09-06T19:36:26.622Z,17.70
2022-09-06T19:39:06.274Z,17.50
2022-09-06T19:41:37.169Z,17.40
2022-09-06T19:44:06.047Z,17.40
2022-09-06T19:46:33.780Z,17.30
2022-09-06T19:49:01.057Z,17.20
2022-09-06T19:51:28.410Z,17.20
2022-09-06T19:54:00.126Z,17.10
2022-09-06T19:56:34.191Z,17.10
2022-09-06T19:59:03.753Z,17.00
2022-09-06T20:01:32.976Z,16.90
2022-09-06T20:04:02.727Z,16.90
2022-09-06T20:06:30.982Z,16.80
2022-09-06T20:08:58.573Z,16.70
2022-09-06T20:11:27.988Z,16.70
2022-09-06T20:13:55.091Z,16.70
2022-09-06T20:16:26.420Z,16.60
2022-09-06T20:18:57.065Z,16.50
2022-09-06T20:21:24.537Z,16.50
2022-09-06T20:23:52.966Z,16.50
2022-09-06T20:26:21.226Z,16.40
2022-09-06T20:28:48.950Z,16.40
2022-09-06T20:31:20.866Z,16.30
2022-09-06T20:33:51.176Z,16.30
2022-09-06T20:36:18.574Z,16.30
2022-09-06T20:38:46.345Z,16.20
2022-09-06T20:41:21.196Z,16.20
2022-09-06T20:43:58.524Z,16.20
2022-09-06T20:46:28.239Z,16.10
2022-09-06T20:48:56.910Z,16.10
2022-09-06T20:51:24.258Z,16.10
2022-09-06T20:53:56.019Z,16.10
2022-09-06T20:56:30.956Z,16.10
2022-09-06T20:59:01.076Z,16.00
2022-09-06T21:01:35.960Z,16.00
2022-09-06T21:04:05.504Z,16.00
2022-09-06T21:06:35.846Z,16.00
2022-09-06T21:09:08.198Z,15.90
2022-09-06T21:11:35.366Z,15.90
2022-09-06T21:14:03.079Z,15.90
2022-09-06T21:16:31.580Z,15.90
2022-09-06T21:19:03.525Z,15.90
2022-09-06T21:21:37.124Z,15.80
2022-09-06T21:24:05.457Z,15.80
2022-09-06T21:26:32.692Z,15.80
2022-09-06T21:29:00.333Z,15.80
2022-09-06T21:31:36.244Z,15.80
2022-09-06T21:34:05.619Z,15.80
2022-09-06T21:36:47.917Z,15.70
2022-09-06T21:39:15.377Z,15.70
2022-09-06T21:41:43.606Z,15.70
2022-09-06T21:48:49.659Z,15.70
2022-09-06T21:48:49.835Z,15.70
2022-09-06T21:51:19.296Z,15.70
2022-09-06T21:54:19.102Z,15.60
2022-09-06T21:56:46.810Z,15.60
2022-09-06T21:59:14.235Z,15.60
2022-09-06T22:01:44.035Z,15.60
2022-09-06T22:04:12.332Z,15.60
2022-09-06T22:06:39.669Z,15.60
2022-09-06T22:09:10.944Z,15.60
2022-09-06T22:11:41.739Z,15.50
2022-09-06T22:14:11.261Z,15.60
2022-09-06T22:16:39.233Z,15.50
2022-09-06T22:19:07.054Z,15.50
2022-09-06T22:21:34.316Z,15.50
2022-09-06T22:24:06.859Z,15.50
2022-09-06T22:26:35.218Z,15.50
2022-09-06T22:29:03.825Z,15.50
2022-09-06T22:31:31.975Z,15.50
2022-09-06T22:33:59.309Z,15.50
2022-09-06T22:36:26.555Z,15.50
2022-09-06T22:38:57.608Z,15.50
2022-09-06T22:41:29.208Z,15.50
2022-09-06T22:43:56.571Z,15.60
2022-09-06T22:46:24.062Z,15.50
2022-09-06T22:48:52.267Z,15.50
2022-09-06T22:51:19.397Z,15.50
2022-09-06T22:53:46.579Z,15.50
2022-09-06T22:56:14.094Z,15.50
2022-09-06T22:58:41.244Z,15.50
2022-09-06T23:01:10.595Z,15.40
2022-09-06T23:03:38.267Z,15.40
2022-09-06T23:06:05.526Z,15.40
2022-09-06T23:08:33.638Z,15.40
2022-09-06T23:11:05.394Z,15.40
2022-09-06T23:13:32.482Z,15.40
2022-09-06T23:16:07.213Z,15.40
2022-09-06T23:18:34.612Z,15.40
2022-09-06T23:24:23.402Z,15.30
2022-09-06T23:30:47.910Z,15.30
2022-09-06T23:33:15.165Z,15.30
2022-09-06T23:35:42.431Z,15.20
2022-09-06T23:38:09.870Z,15.30
2022-09-06T23:40:37.524Z,15.20
2022-09-06T23:43:04.726Z,15.30
2022-09-06T23:45:32.084Z,15.30
2022-09-06T23:48:07.293Z,15.40
2022-09-06T23:50:35.549Z,15.50
2022-09-06T23:53:02.904Z,15.50
2022-09-06T23:55:32.557Z,15.60
2022-09-06T23:57:59.562Z,15.50
